createdAt,value
2023-05-16T00:00:53.292Z,2.70
2023-05-16T00:03:22.153Z,2.90
2023-05-16T00:05:50.779Z,2.60
2023-05-16T00:08:20.673Z,3.10
2023-05-16T00:10:49.127Z,2.70
2023-05-16T00:13:22.278Z,4.33
2023-05-16T00:15:51.862Z,3.63
2023-05-16T00:18:22.223Z,4.37
2023-05-16T00:20:51.961Z,2.57
2023-05-16T00:23:21.848Z,3.73
2023-05-16T00:25:50.467Z,2.97
2023-05-16T00:28:18.942Z,2.50
2023-05-16T00:30:47.353Z,3.90
2023-05-16T00:33:16.110Z,3.20
2023-05-16T00:35:44.672Z,2.30
2023-05-16T00:38:13.190Z,2.20
2023-05-16T00:40:43.028Z,4.27
2023-05-16T00:43:11.476Z,2.50
2023-05-16T00:45:40.161Z,3.33
2023-05-16T00:48:09.407Z,2.67
2023-05-16T00:50:38.562Z,3.50
2023-05-16T00:53:07.129Z,2.60
2023-05-16T00:55:35.847Z,2.60
2023-05-16T00:58:06.719Z,2.40
2023-05-16T01:00:36.239Z,3.60
2023-05-16T01:03:05.895Z,2.70
2023-05-16T01:05:34.780Z,2.60
2023-05-16T01:08:04.008Z,2.37
2023-05-16T01:10:41.225Z,2.30
2023-05-16T01:13:14.368Z,2.43
2023-05-16T01:15:48.261Z,2.60
2023-05-16T01:18:23.570Z,2.93
2023-05-16T01:20:56.905Z,3.53
2023-05-16T01:23:36.627Z,2.50
2023-05-16T01:26:28.002Z,2.53
2023-05-16T01:28:56.537Z,2.67
2023-05-16T01:31:25.156Z,2.87
2023-05-16T01:33:53.625Z,2.43
2023-05-16T01:36:26.719Z,2.50
2023-05-16T01:39:03.007Z,3.33
2023-05-16T01:41:42.181Z,2.40
2023-05-16T01:44:18.257Z,3.13
2023-05-16T01:46:48.580Z,4.53
2023-05-16T01:49:19.875Z,2.30
2023-05-16T01:51:52.935Z,2.03
2023-05-16T01:54:23.043Z,2.50
2023-05-16T01:56:53.926Z,2.50
2023-05-16T01:59:23.112Z,2.90
2023-05-16T02:01:52.560Z,2.70
2023-05-16T02:04:21.362Z,3.00
2023-05-16T02:06:49.969Z,3.07
2023-05-16T02:09:18.457Z,3.43
2023-05-16T02:11:47.643Z,2.60
2023-05-16T02:14:17.532Z,2.67
2023-05-16T02:16:46.037Z,2.97
2023-05-16T02:19:14.607Z,2.77
2023-05-16T02:21:43.235Z,2.50
2023-05-16T02:24:11.649Z,5.60
2023-05-16T02:26:40.158Z,3.10
2023-05-16T02:29:08.693Z,3.27
2023-05-16T02:31:38.576Z,3.20
2023-05-16T02:34:07.374Z,2.70
2023-05-16T02:36:36.501Z,3.30
2023-05-16T02:39:05.079Z,2.50
2023-05-16T02:41:33.486Z,3.00
2023-05-16T02:44:01.879Z,2.40
2023-05-16T02:46:31.622Z,2.30
2023-05-16T02:49:01.905Z,2.53
2023-05-16T02:51:30.491Z,2.73
2023-05-16T02:53:59.926Z,3.27
2023-05-16T02:56:28.679Z,3.67
2023-05-16T02:58:57.214Z,2.60
2023-05-16T03:01:25.641Z,6.00
2023-05-16T03:03:54.393Z,3.50
2023-05-16T03:06:24.427Z,5.63
2023-05-16T03:08:52.855Z,4.20
2023-05-16T03:11:21.802Z,5.70
2023-05-16T03:13:50.571Z,4.57
2023-05-16T03:16:19.030Z,6.17
2023-05-16T03:18:47.619Z,5.60
2023-05-16T03:21:16.132Z,3.23
2023-05-16T03:23:46.109Z,3.27
2023-05-16T03:26:14.547Z,3.40
2023-05-16T03:28:42.983Z,3.10
2023-05-16T03:31:11.563Z,3.77
2023-05-16T03:33:40.077Z,3.50
2023-05-16T03:36:09.174Z,4.43
2023-05-16T03:38:37.733Z,4.50
2023-05-16T03:41:07.549Z,3.03
2023-05-16T03:43:36.012Z,3.33
2023-05-16T03:46:04.507Z,3.47
2023-05-16T03:48:32.976Z,3.50
2023-05-16T03:51:01.394Z,3.50
2023-05-16T03:53:29.826Z,3.57
2023-05-16T03:55:58.229Z,4.37
2023-05-16T03:58:28.309Z,3.87
2023-05-16T04:00:56.787Z,2.93
2023-05-16T04:03:28.658Z,2.93
2023-05-16T04:05:57.669Z,2.97
2023-05-16T04:08:26.291Z,3.53
2023-05-16T04:10:54.716Z,3.07
2023-05-16T04:13:23.183Z,3.23
2023-05-16T04:15:53.045Z,2.50
2023-05-16T04:18:21.430Z,2.70
2023-05-16T04:20:50.207Z,2.57
2023-05-16T04:23:18.658Z,2.40
2023-05-16T04:25:47.132Z,3.17
2023-05-16T04:28:15.697Z,2.60
2023-05-16T04:30:44.121Z,3.10
2023-05-16T04:33:14.076Z,3.37
2023-05-16T04:35:43.120Z,2.53
2023-05-16T04:38:11.598Z,2.57
2023-05-16T04:40:40.440Z,2.60
2023-05-16T04:43:09.109Z,2.77
2023-05-16T04:45:38.031Z,7.93
2023-05-16T04:48:06.907Z,5.23
2023-05-16T04:50:36.745Z,5.07
2023-05-16T04:53:05.210Z,3.43
2023-05-16T04:55:33.689Z,4.30
2023-05-16T04:58:02.132Z,2.90
2023-05-16T05:00:30.695Z,2.60
2023-05-16T05:02:59.246Z,2.60
2023-05-16T05:05:28.199Z,2.90
2023-05-16T05:07:59.448Z,2.70
2023-05-16T05:10:28.405Z,3.43
2023-05-16T05:12:56.849Z,3.20
2023-05-16T05:15:25.486Z,2.77
2023-05-16T05:17:54.113Z,3.00
2023-05-16T05:20:23.394Z,4.33
2023-05-16T05:22:51.926Z,2.80
2023-05-16T05:25:21.747Z,3.10
2023-05-16T05:27:50.252Z,3.73
2023-05-16T05:30:18.647Z,2.70
2023-05-16T05:32:47.197Z,3.17
2023-05-16T05:35:16.339Z,3.83
2023-05-16T05:37:44.898Z,4.00
2023-05-16T05:40:13.609Z,3.40
2023-05-16T05:42:45.366Z,2.83
2023-05-16T05:45:16.080Z,3.50
2023-05-16T05:47:45.015Z,3.70
2023-05-16T05:50:15.828Z,6.77
2023-05-16T05:52:44.339Z,3.27
2023-05-16T05:55:12.815Z,6.20
2023-05-16T05:57:41.239Z,5.97
2023-05-16T06:00:17.029Z,5.50
2023-05-16T06:02:45.646Z,3.40
2023-05-16T06:05:14.162Z,4.03
2023-05-16T06:07:42.651Z,3.53
2023-05-16T06:10:11.434Z,4.33
2023-05-16T06:12:39.950Z,3.57
2023-05-16T06:15:11.694Z,3.70
2023-05-16T06:17:40.303Z,4.93
2023-05-16T06:20:09.809Z,4.53
2023-05-16T06:22:38.313Z,4.33
2023-05-16T06:25:07.514Z,4.07
2023-05-16T06:27:35.941Z,3.20
2023-05-16T06:30:04.796Z,2.90
2023-05-16T06:32:34.647Z,4.43
2023-05-16T06:35:03.242Z,3.50
2023-05-16T06:37:31.742Z,3.47
2023-05-16T06:40:00.302Z,4.00
2023-05-16T06:42:28.793Z,7.20
2023-05-16T06:44:57.251Z,6.40
2023-05-16T06:47:25.817Z,5.10
2023-05-16T06:49:55.895Z,6.63
2023-05-16T06:52:24.330Z,4.90
2023-05-16T06:54:53.858Z,5.80
2023-05-16T06:57:22.315Z,5.07
2023-05-16T06:59:50.876Z,6.27
2023-05-16T07:02:19.461Z,6.40
2023-05-16T07:04:48.488Z,6.80
2023-05-16T07:07:18.435Z,6.10
2023-05-16T07:09:46.879Z,5.23
2023-05-16T07:12:15.385Z,5.67
2023-05-16T07:14:44.307Z,7.10
2023-05-16T07:17:12.917Z,12.33
2023-05-16T07:19:41.506Z,8.93
2023-05-16T07:22:11.106Z,7.60
2023-05-16T07:24:40.963Z,6.50
2023-05-16T07:27:09.458Z,5.40
2023-05-16T07:29:38.053Z,4.80
2023-05-16T07:32:07.801Z,4.47
2023-05-16T07:34:36.420Z,4.90
2023-05-16T07:37:05.187Z,5.53
2023-05-16T07:39:33.970Z,5.93
2023-05-16T07:42:03.832Z,5.27
2023-05-16T07:44:32.199Z,38.00
2023-05-16T07:47:00.683Z,6.10
2023-05-16T07:49:29.231Z,7.47
2023-05-16T07:51:57.741Z,8.77
2023-05-16T07:54:26.305Z,5.73
2023-05-16T07:56:54.802Z,23.47
2023-05-16T07:59:24.798Z,14.40
2023-05-16T08:01:53.330Z,6.93
2023-05-16T08:04:21.892Z,15.40
2023-05-16T08:06:50.521Z,13.00
2023-05-16T08:09:19.271Z,6.10
2023-05-16T08:11:47.854Z,8.90
2023-05-16T08:14:16.473Z,5.67
2023-05-16T08:16:46.377Z,9.53
2023-05-16T08:19:15.033Z,5.30
2023-05-16T08:21:43.672Z,6.53
2023-05-16T08:24:12.260Z,5.90
2023-05-16T08:26:40.690Z,5.63
2023-05-16T08:29:09.129Z,5.33
2023-05-16T08:31:37.776Z,5.40
2023-05-16T08:34:07.669Z,6.00
2023-05-16T08:36:36.285Z,9.10
2023-05-16T08:39:04.940Z,8.17
2023-05-16T08:41:33.380Z,6.77
2023-05-16T08:44:01.840Z,7.07
2023-05-16T08:46:31.119Z,7.90
2023-05-16T08:49:01.576Z,8.70
2023-05-16T08:51:35.429Z,8.37
2023-05-16T08:54:05.973Z,5.77
2023-05-16T08:56:35.623Z,6.07
2023-05-16T08:59:04.483Z,6.90
2023-05-16T09:01:33.251Z,6.57
2023-05-16T09:04:02.376Z,6.37
2023-05-16T09:06:32.421Z,5.93
2023-05-16T09:09:00.913Z,5.37
2023-05-16T09:11:29.977Z,5.47
2023-05-16T09:14:00.769Z,13.53
2023-05-16T09:16:29.204Z,10.43
2023-05-16T09:18:59.573Z,6.90
2023-05-16T09:21:29.493Z,5.50
2023-05-16T09:24:04.897Z,7.47
2023-05-16T09:26:34.206Z,10.63
2023-05-16T09:29:02.873Z,7.93
2023-05-16T09:31:36.836Z,8.00
2023-05-16T09:34:05.987Z,6.60
2023-05-16T09:36:34.995Z,7.13
2023-05-16T09:39:04.935Z,7.00
2023-05-16T09:41:35.254Z,5.93
2023-05-16T09:44:05.703Z,7.20
2023-05-16T09:46:36.241Z,10.83
2023-05-16T09:49:04.776Z,7.10
2023-05-16T09:51:33.554Z,5.43
2023-05-16T09:54:01.971Z,5.90
2023-05-16T09:56:31.811Z,4.80
2023-05-16T09:59:00.218Z,4.80
2023-05-16T10:01:28.780Z,6.10
2023-05-16T10:03:57.299Z,5.37
2023-05-16T10:06:26.264Z,5.47
2023-05-16T10:08:54.765Z,4.73
2023-05-16T10:11:23.527Z,5.07
2023-05-16T10:13:54.106Z,5.57
2023-05-16T10:16:24.638Z,6.10
2023-05-16T10:18:53.901Z,6.27
2023-05-16T10:21:23.771Z,5.07
2023-05-16T10:23:53.449Z,5.03
2023-05-16T10:26:22.469Z,5.57
2023-05-16T10:28:51.308Z,5.57
2023-05-16T10:31:21.187Z,6.20
2023-05-16T10:33:50.466Z,6.90
2023-05-16T10:36:19.231Z,6.40
2023-05-16T10:38:48.055Z,5.90
2023-05-16T10:41:16.779Z,7.10
2023-05-16T10:43:46.883Z,5.90
2023-05-16T10:46:15.932Z,6.17
2023-05-16T10:48:45.896Z,5.63
2023-05-16T10:51:37.166Z,5.50
2023-05-16T10:54:10.444Z,6.20
2023-05-16T10:56:39.321Z,5.57
2023-05-16T10:59:24.372Z,5.30
2023-05-16T11:01:54.957Z,4.60
2023-05-16T11:04:25.006Z,4.63
2023-05-16T11:06:54.769Z,5.03
2023-05-16T11:09:28.435Z,5.20
2023-05-16T11:11:59.862Z,5.37
2023-05-16T11:14:32.028Z,6.93
2023-05-16T11:17:06.145Z,5.40
2023-05-16T11:19:40.514Z,7.13
2023-05-16T11:22:10.175Z,6.07
2023-05-16T11:24:39.756Z,6.07
2023-05-16T11:27:08.333Z,6.10
2023-05-16T11:29:37.474Z,5.63
2023-05-16T11:32:06.686Z,6.10
2023-05-16T11:34:39.680Z,5.23
2023-05-16T11:37:08.361Z,5.10
2023-05-16T11:39:37.199Z,5.37
2023-05-16T11:42:06.116Z,5.10
2023-05-16T11:44:34.592Z,5.23
2023-05-16T11:47:03.809Z,4.83
2023-05-16T11:49:33.457Z,3.80
2023-05-16T11:52:03.485Z,3.93
2023-05-16T11:54:32.193Z,3.87
2023-05-16T11:57:00.755Z,5.00
2023-05-16T11:59:29.293Z,4.60
2023-05-16T12:01:58.011Z,4.07
2023-05-16T12:04:26.754Z,10.37
2023-05-16T12:07:03.929Z,4.40
2023-05-16T12:09:32.599Z,4.50
2023-05-16T12:12:01.590Z,7.47
2023-05-16T12:14:30.153Z,5.00
2023-05-16T12:16:58.826Z,4.13
2023-05-16T12:19:27.926Z,4.00
2023-05-16T12:21:56.694Z,4.57
2023-05-16T12:24:32.594Z,4.40
2023-05-16T12:27:01.105Z,4.77
2023-05-16T12:29:29.565Z,6.03
2023-05-16T12:31:58.144Z,5.47
2023-05-16T12:34:30.833Z,5.83
2023-05-16T12:37:02.080Z,5.90
2023-05-16T12:39:38.631Z,7.37
2023-05-16T12:42:09.617Z,8.03
2023-05-16T12:44:38.124Z,5.80
2023-05-16T12:47:13.667Z,5.90
2023-05-16T12:49:46.801Z,5.07
2023-05-16T12:52:20.710Z,11.87
2023-05-16T12:54:50.650Z,7.83
2023-05-16T12:57:20.064Z,6.60
2023-05-16T12:59:48.612Z,4.63
2023-05-16T13:02:18.974Z,4.93
2023-05-16T13:04:47.604Z,4.63
2023-05-16T13:07:17.589Z,4.40
2023-05-16T13:09:46.067Z,4.77
2023-05-16T13:12:15.930Z,6.37
2023-05-16T13:14:45.157Z,6.03
2023-05-16T13:17:13.588Z,5.03
2023-05-16T13:19:42.083Z,4.23
2023-05-16T13:22:10.543Z,3.80
2023-05-16T13:24:39.085Z,3.80
2023-05-16T13:27:08.749Z,3.80
2023-05-16T13:29:38.583Z,3.37
2023-05-16T13:32:07.668Z,3.20
2023-05-16T13:34:36.275Z,3.00
2023-05-16T13:37:05.018Z,3.67
2023-05-16T13:39:33.478Z,3.77
2023-05-16T13:42:03.213Z,3.40
2023-05-16T13:44:31.730Z,3.23
2023-05-16T13:47:01.560Z,3.83
2023-05-16T13:49:30.068Z,2.90
2023-05-16T13:51:59.141Z,3.30
2023-05-16T13:54:27.566Z,2.87
2023-05-16T13:56:56.063Z,3.13
2023-05-16T13:59:44.991Z,3.10
2023-05-16T14:02:14.352Z,2.90
2023-05-16T14:04:42.833Z,3.20
2023-05-16T14:07:11.374Z,3.00
2023-05-16T14:09:40.114Z,3.80
2023-05-16T14:12:09.550Z,3.30
2023-05-16T14:14:38.179Z,3.10
2023-05-16T14:17:07.545Z,3.10
2023-05-16T14:19:37.396Z,3.10
2023-05-16T14:22:06.314Z,3.50
2023-05-16T14:24:34.911Z,3.33
2023-05-16T14:27:03.421Z,3.03
2023-05-16T14:29:31.926Z,5.97
2023-05-16T14:32:00.646Z,5.73
2023-05-16T14:34:29.285Z,8.60
2023-05-16T14:36:59.267Z,6.37
2023-05-16T14:39:28.199Z,7.57
2023-05-16T14:41:56.659Z,5.70
2023-05-16T14:44:25.152Z,4.17
2023-05-16T14:46:53.570Z,3.70
2023-05-16T14:49:22.072Z,2.80
2023-05-16T14:51:51.038Z,4.03
2023-05-16T14:54:21.518Z,2.80
2023-05-16T14:56:49.974Z,3.00
2023-05-16T14:59:18.618Z,2.80
2023-05-16T15:01:47.118Z,2.27
2023-05-16T15:04:15.990Z,3.10
2023-05-16T15:06:44.545Z,4.10
2023-05-16T15:09:13.576Z,3.60
2023-05-16T15:11:43.416Z,1.70
2023-05-16T15:14:11.993Z,1.50
2023-05-16T15:16:40.555Z,1.70
2023-05-16T15:19:09.370Z,2.93
2023-05-16T15:21:38.090Z,2.00
2023-05-16T15:24:08.298Z,2.30
2023-05-16T15:26:37.636Z,2.60
2023-05-16T15:29:07.690Z,3.67
2023-05-16T15:31:36.383Z,3.53
2023-05-16T15:34:06.298Z,4.00
2023-05-16T15:36:34.854Z,2.77
2023-05-16T15:39:03.869Z,2.63
2023-05-16T15:44:07.343Z,9.47
2023-05-16T15:46:35.931Z,5.83
2023-05-16T15:49:04.517Z,4.30
2023-05-16T15:51:33.036Z,5.27
2023-05-16T15:54:01.588Z,4.57
2023-05-16T15:56:30.175Z,5.30
2023-05-16T15:58:58.629Z,7.30
2023-05-16T16:01:28.610Z,7.57
2023-05-16T16:03:57.219Z,4.50
2023-05-16T16:06:25.801Z,5.10
2023-05-16T16:08:54.389Z,2.77
2023-05-16T16:11:23.470Z,2.80
2023-05-16T16:13:52.246Z,3.47
2023-05-16T16:16:20.814Z,11.97
2023-05-16T16:18:51.091Z,35.27
2023-05-16T16:21:19.585Z,14.93
2023-05-16T16:23:48.132Z,5.17
2023-05-16T16:26:17.386Z,16.47
2023-05-16T16:28:45.877Z,36.07
2023-05-16T16:31:14.410Z,25.17
2023-05-16T16:33:43.117Z,13.67
2023-05-16T16:36:13.000Z,30.90
2023-05-16T16:38:41.645Z,24.20
2023-05-16T16:41:10.350Z,14.00
2023-05-16T16:43:40.435Z,8.30
2023-05-16T16:46:09.432Z,15.83
2023-05-16T16:48:38.228Z,22.87
2023-05-16T16:51:06.851Z,6.07
2023-05-16T16:53:37.892Z,4.00
2023-05-16T16:56:06.985Z,4.60
2023-05-16T16:58:35.501Z,6.80
2023-05-16T17:01:04.107Z,3.57
2023-05-16T17:03:32.723Z,4.87
2023-05-16T17:06:01.242Z,3.13
2023-05-16T17:08:29.692Z,4.63
2023-05-16T17:10:59.840Z,7.97
2023-05-16T17:13:33.566Z,6.07
2023-05-16T17:16:02.174Z,6.33
2023-05-16T17:18:32.992Z,6.87
2023-05-16T17:21:03.039Z,7.07
2023-05-16T17:23:32.756Z,5.00
2023-05-16T17:26:02.787Z,5.67
2023-05-16T17:28:32.516Z,4.53
2023-05-16T17:31:04.038Z,6.27
2023-05-16T17:33:32.906Z,5.43
2023-05-16T17:36:01.689Z,5.20
2023-05-16T17:38:30.458Z,5.33
2023-05-16T17:40:59.006Z,3.57
2023-05-16T17:43:31.160Z,2.87
2023-05-16T17:45:59.791Z,2.70
2023-05-16T17:48:28.564Z,3.40
2023-05-16T17:50:57.166Z,4.40
2023-05-16T17:53:26.721Z,4.87
2023-05-16T17:55:55.249Z,4.57
2023-05-16T17:58:23.720Z,2.93
2023-05-16T18:00:53.798Z,5.57
2023-05-16T18:03:22.296Z,5.53
2023-05-16T18:05:51.037Z,6.63
2023-05-16T18:08:19.735Z,6.77
2023-05-16T18:10:51.929Z,9.27
2023-05-16T18:13:22.033Z,9.43
2023-05-16T18:15:50.782Z,11.30
2023-05-16T18:18:20.962Z,15.53
2023-05-16T18:20:50.828Z,12.53
2023-05-16T18:23:19.360Z,13.90
2023-05-16T18:25:47.937Z,8.07
2023-05-16T18:28:16.389Z,4.87
2023-05-16T18:30:45.176Z,3.80
2023-05-16T18:33:14.271Z,4.87
2023-05-16T18:35:44.137Z,2.50
2023-05-16T18:38:28.385Z,3.33
2023-05-16T18:41:00.206Z,2.80
2023-05-16T18:43:28.813Z,5.63
2023-05-16T18:45:57.844Z,3.50
2023-05-16T18:48:26.417Z,3.23
2023-05-16T18:50:56.505Z,2.87
2023-05-16T18:53:25.125Z,3.07
2023-05-16T18:55:53.686Z,2.50
2023-05-16T18:58:22.166Z,3.13
2023-05-16T19:00:50.688Z,10.87
2023-05-16T19:03:19.359Z,9.10
2023-05-16T19:05:48.333Z,4.70
2023-05-16T19:08:18.353Z,4.00
2023-05-16T19:10:46.873Z,3.93
2023-05-16T19:13:15.358Z,3.33
2023-05-16T19:15:43.786Z,2.03
2023-05-16T19:18:12.452Z,3.17
2023-05-16T19:20:42.704Z,4.07
2023-05-16T19:23:12.238Z,3.10
2023-05-16T19:25:47.228Z,4.57
2023-05-16T19:28:15.789Z,6.47
2023-05-16T19:30:44.333Z,4.97
2023-05-16T19:33:12.905Z,5.87
2023-05-16T19:35:41.483Z,4.03
2023-05-16T19:38:10.206Z,3.70
2023-05-16T19:40:38.771Z,2.20
2023-05-16T19:43:08.622Z,1.43
2023-05-16T19:45:37.376Z,1.50
2023-05-16T19:48:06.642Z,0.80
2023-05-16T19:50:35.186Z,0.90
2023-05-16T19:53:04.242Z,1.20
2023-05-16T19:55:33.501Z,1.07
2023-05-16T19:58:02.972Z,3.83
2023-05-16T20:00:33.076Z,6.30
2023-05-16T20:03:01.706Z,2.90
2023-05-16T20:05:30.860Z,1.20
2023-05-16T20:07:59.601Z,1.53
2023-05-16T20:10:28.263Z,0.30
2023-05-16T20:12:57.103Z,0.40
2023-05-16T20:15:25.878Z,0.47
2023-05-16T20:17:55.930Z,0.40
2023-05-16T20:20:24.938Z,0.67
2023-05-16T20:22:53.822Z,0.70
2023-05-16T20:25:22.536Z,0.40
2023-05-16T20:27:51.321Z,0.40
2023-05-16T20:30:20.220Z,0.43
2023-05-16T20:32:49.165Z,0.97
2023-05-16T20:35:19.203Z,0.30
2023-05-16T20:37:47.676Z,0.30
2023-05-16T20:40:16.260Z,0.40
2023-05-16T20:42:44.969Z,0.30
2023-05-16T20:45:13.462Z,0.60
2023-05-16T20:47:42.007Z,0.27
2023-05-16T20:50:12.841Z,0.20
2023-05-16T20:52:42.692Z,0.20
2023-05-16T20:55:11.171Z,0.20
2023-05-16T20:57:40.441Z,0.10
2023-05-16T21:00:11.086Z,0.13
2023-05-16T21:02:39.585Z,0.50
2023-05-16T21:05:23.371Z,0.23
2023-05-16T21:07:54.691Z,0.40
2023-05-16T21:10:23.186Z,0.40
2023-05-16T21:12:51.820Z,0.40
2023-05-16T21:15:23.051Z,0.70
2023-05-16T21:17:52.525Z,1.07
2023-05-16T21:20:21.232Z,1.20
2023-05-16T21:22:49.796Z,1.20
2023-05-16T21:25:19.614Z,0.70
2023-05-16T21:27:48.105Z,0.30
2023-05-16T21:30:16.725Z,0.60
2023-05-16T21:32:45.170Z,0.60
2023-05-16T21:35:13.739Z,0.30
2023-05-16T21:37:42.238Z,0.40
2023-05-16T21:40:14.699Z,0.87
2023-05-16T21:42:44.619Z,0.30
2023-05-16T21:45:16.511Z,0.30
2023-05-16T21:47:45.163Z,0.50
2023-05-16T21:50:14.340Z,0.83
2023-05-16T21:52:42.846Z,0.10
2023-05-16T21:55:11.557Z,1.10
2023-05-16T21:57:39.967Z,0.20
2023-05-16T22:00:11.130Z,0.30
2023-05-16T22:02:39.820Z,0.40
2023-05-16T22:05:09.405Z,0.30
2023-05-16T22:07:38.499Z,0.63
2023-05-16T22:10:07.918Z,0.33
2023-05-16T22:12:36.336Z,0.30
2023-05-16T22:15:05.411Z,0.83
2023-05-16T22:17:35.340Z,0.33
2023-05-16T22:20:03.920Z,0.43
2023-05-16T22:22:32.419Z,0.20
2023-05-16T22:25:01.175Z,0.57
2023-05-16T22:27:29.602Z,0.10
2023-05-16T22:29:58.052Z,0.20
2023-05-16T22:32:27.584Z,0.30
2023-05-16T22:34:57.665Z,0.40
2023-05-16T22:37:26.865Z,0.30
2023-05-16T22:39:56.999Z,0.57
2023-05-16T22:42:25.930Z,0.53
2023-05-16T22:44:54.352Z,0.60
2023-05-16T22:47:22.814Z,0.60
2023-05-16T22:49:51.246Z,0.20
2023-05-16T22:52:22.130Z,0.60
2023-05-16T22:54:50.603Z,1.07
2023-05-16T22:57:19.055Z,0.50
2023-05-16T22:59:47.539Z,0.60
2023-05-16T23:02:15.964Z,0.20
2023-05-16T23:04:44.671Z,0.30
2023-05-16T23:07:13.133Z,0.70
2023-05-16T23:09:43.023Z,0.30
2023-05-16T23:12:11.562Z,0.63
2023-05-16T23:14:40.003Z,0.97
2023-05-16T23:17:08.572Z,1.00
2023-05-16T23:19:37.093Z,0.70
2023-05-16T23:22:06.188Z,0.60
2023-05-16T23:24:34.674Z,0.60
2023-05-16T23:27:04.613Z,2.17
2023-05-16T23:29:33.103Z,0.60
2023-05-16T23:32:01.756Z,1.43
2023-05-16T23:34:30.303Z,0.80
2023-05-16T23:36:58.754Z,0.50
2023-05-16T23:39:27.251Z,0.40
2023-05-16T23:41:55.672Z,1.20
2023-05-16T23:44:25.530Z,1.00
2023-05-16T23:46:53.954Z,0.37
2023-05-16T23:49:22.391Z,0.93
2023-05-16T23:54:22.389Z,0.37
2023-05-16T23:56:51.088Z,0.30
2023-05-16T23:59:20.326Z,0.30
